Time;durP1;ratioP1;P1;durP2;ratioP2;P2;SDS_P1;SDS_P2;PMS_P1;PMS_P2;Temp;Humidity;BMP_temperature;BMP_pressure;BME280_temperature;BME280_humidity;BME280_pressure;Samples;Min_cycle;Max_cycle;Signal;HPM_P1;HPM_P2
2023/04/16 02:01:07;;;;;;;20.88;12.45;;;;;;;;;;4700349;28;20049;-73
2023/04/16 02:03:34;;;;;;;22.33;13.90;;;;;;;;;;4277011;33;20053;-73
2023/04/16 02:06:02;;;;;;;26.58;15.13;;;;;;;;;;4257859;33;20046;-72
2023/04/16 02:08:29;;;;;;;24.52;14.80;;;;;;;;;;4235716;33;20045;-73
2023/04/16 02:10:55;;;;;;;29.42;15.55;;;;;;;;;;4235381;33;20068;-73
2023/04/16 02:13:29;;;;;;;24.70;14.82;;;;;;;;;;4235650;33;20103;-72
2023/04/16 02:15:55;;;;;;;23.87;14.70;;;;;;;;;;4239126;33;20114;-72
2023/04/16 02:18:22;;;;;;;20.45;14.25;;;;;;;;;;4241378;33;20087;-72
2023/04/16 02:20:48;;;;;;;19.60;13.77;;;;;;;;;;4241160;33;20068;-75
2023/04/16 02:23:16;;;;;;;21.75;14.60;;;;;;;;;;4239118;33;20444;-73
2023/04/16 02:25:43;;;;;;;22.90;14.55;;;;;;;;;;4236445;33;20103;-74
2023/04/16 02:28:11;;;;;;;25.85;16.00;;;;;;;;;;4235894;33;20196;-73
2023/04/16 02:30:39;;;;;;;23.17;14.63;;;;;;;;;;4227780;33;20111;-73
2023/04/16 02:33:06;;;;;;;26.83;14.25;;;;;;;;;;4220201;33;20358;-72
2023/04/16 02:35:33;;;;;;;25.70;14.90;;;;;;;;;;4223100;33;20552;-73
2023/04/16 02:37:59;;;;;;;25.48;15.88;;;;;;;;;;4234883;33;20054;-73
2023/04/16 02:40:25;;;;;;;24.45;15.82;;;;;;;;;;4235102;33;20041;-72
2023/04/16 02:42:52;;;;;;;25.25;15.60;;;;;;;;;;4234360;33;20046;-74
2023/04/16 02:45:19;;;;;;;24.15;14.02;;;;;;;;;;4255879;33;20503;-73
2023/04/16 02:47:45;;;;;;;25.20;15.10;;;;;;;;;;4264179;33;20038;-73
2023/04/16 02:50:12;;;;;;;23.70;14.80;;;;;;;;;;4264377;33;20049;-73
2023/04/16 02:52:38;;;;;;;28.58;17.25;;;;;;;;;;4263635;33;20097;-73
2023/04/16 02:55:04;;;;;;;24.20;16.20;;;;;;;;;;4260471;33;20117;-73
2023/04/16 02:57:31;;;;;;;27.40;16.77;;;;;;;;;;4264123;33;20057;-72
2023/04/16 02:59:57;;;;;;;27.65;17.35;;;;;;;;;;4248247;33;20149;-72
2023/04/16 03:02:24;;;;;;;27.58;17.48;;;;;;;;;;4238113;33;20058;-73
2023/04/16 03:04:50;;;;;;;25.85;14.15;;;;;;;;;;4249220;33;20414;-76
2023/04/16 03:07:17;;;;;;;25.90;16.65;;;;;;;;;;4248910;33;20474;-73
2023/04/16 03:09:43;;;;;;;26.40;15.90;;;;;;;;;;4249400;33;20423;-72
2023/04/16 03:12:09;;;;;;;25.75;15.52;;;;;;;;;;4249481;33;20066;-73
2023/04/16 03:14:35;;;;;;;28.38;16.37;;;;;;;;;;4248967;33;20429;-73
2023/04/16 03:17:08;;;;;;;23.90;15.40;;;;;;;;;;4250610;33;20111;-72
2023/04/16 03:19:35;;;;;;;24.20;15.10;;;;;;;;;;4250990;33;20080;-72
2023/04/16 03:22:01;;;;;;;22.95;14.93;;;;;;;;;;4252335;33;20459;-72
2023/04/16 03:24:28;;;;;;;22.62;13.60;;;;;;;;;;4240181;33;20035;-72
2023/04/16 03:26:56;;;;;;;26.77;16.05;;;;;;;;;;4249750;33;20075;-75
2023/04/16 03:29:22;;;;;;;22.48;15.10;;;;;;;;;;4235716;33;20030;-72
2023/04/16 03:31:48;;;;;;;25.95;16.00;;;;;;;;;;4226435;33;20081;-74
2023/04/16 03:34:15;;;;;;;25.95;15.95;;;;;;;;;;4212109;34;20419;-73
2023/04/16 03:36:41;;;;;;;25.45;14.73;;;;;;;;;;4210121;34;20047;-74
2023/04/16 03:39:07;;;;;;;27.65;14.77;;;;;;;;;;4208110;34;20096;-73
2023/04/16 03:41:34;;;;;;;24.10;12.63;;;;;;;;;;4197103;34;20349;-74
2023/04/16 03:43:59;;;;;;;21.70;14.07;;;;;;;;;;4195346;34;20169;-74
2023/04/16 03:46:26;;;;;;;22.60;14.38;;;;;;;;;;4188135;34;20047;-73
2023/04/16 03:48:52;;;;;;;22.75;14.40;;;;;;;;;;4187552;34;20466;-76
2023/04/16 03:51:19;;;;;;;24.02;15.07;;;;;;;;;;4194279;34;20052;-73
2023/04/16 03:53:45;;;;;;;19.37;13.57;;;;;;;;;;4206533;34;20130;-73
2023/04/16 03:56:12;;;;;;;23.17;15.20;;;;;;;;;;4208509;34;20059;-74
2023/04/16 03:58:38;;;;;;;27.20;15.95;;;;;;;;;;4203117;34;20161;-73
2023/04/16 04:01:04;;;;;;;27.48;15.25;;;;;;;;;;4210215;34;20051;-76
2023/04/16 04:03:31;;;;;;;22.40;14.20;;;;;;;;;;4232644;33;20072;-74
2023/04/16 04:05:57;;;;;;;24.00;15.05;;;;;;;;;;4259080;33;20160;-73
2023/04/16 04:08:23;;;;;;;28.15;16.73;;;;;;;;;;4259545;33;20045;-73
2023/04/16 04:10:50;;;;;;;26.48;15.73;;;;;;;;;;4265753;33;20061;-74
2023/04/16 04:13:18;;;;;;;22.75;14.60;;;;;;;;;;4275340;33;20099;-80
2023/04/16 04:15:44;;;;;;;25.08;15.77;;;;;;;;;;4276100;33;20061;-73
2023/04/16 04:18:10;;;;;;;29.83;16.12;;;;;;;;;;4265774;33;20095;-73
2023/04/16 04:20:40;;;;;;;27.87;15.50;;;;;;;;;;4265688;33;20041;-72
2023/04/16 04:23:06;;;;;;;27.52;16.35;;;;;;;;;;4257048;33;20043;-73
2023/04/16 04:25:32;;;;;;;34.20;16.15;;;;;;;;;;4250268;33;20041;-82
2023/04/16 04:27:58;;;;;;;33.20;18.10;;;;;;;;;;4249162;33;20445;-72
2023/04/16 04:30:25;;;;;;;28.55;16.83;;;;;;;;;;4251854;33;20054;-70
2023/04/16 04:32:51;;;;;;;24.15;15.43;;;;;;;;;;4253693;33;20060;-71
2023/04/16 04:35:17;;;;;;;24.60;15.02;;;;;;;;;;4251759;33;20069;-71
2023/04/16 04:37:43;;;;;;;36.33;17.77;;;;;;;;;;4236039;33;20030;-78
2023/04/16 04:40:10;;;;;;;28.02;14.77;;;;;;;;;;4220939;34;20046;-74
2023/04/16 04:42:36;;;;;;;24.80;14.87;;;;;;;;;;4223369;34;20042;-71
2023/04/16 04:45:03;;;;;;;28.17;15.90;;;;;;;;;;4223365;34;20054;-72
2023/04/16 04:47:30;;;;;;;28.10;15.23;;;;;;;;;;4222222;33;20042;-71
2023/04/16 04:49:56;;;;;;;25.40;15.60;;;;;;;;;;4211109;33;20059;-79
2023/04/16 04:52:22;;;;;;;29.33;15.13;;;;;;;;;;4196391;34;20464;-71
2023/04/16 04:54:49;;;;;;;24.80;15.02;;;;;;;;;;4195040;34;20051;-70
2023/04/16 04:57:15;;;;;;;26.33;14.77;;;;;;;;;;4202935;34;20063;-71
2023/04/16 04:59:42;;;;;;;25.20;14.87;;;;;;;;;;4206893;34;20386;-72
2023/04/16 05:02:09;;;;;;;31.30;16.25;;;;;;;;;;4206408;34;20042;-72
2023/04/16 05:04:36;;;;;;;25.15;15.35;;;;;;;;;;4207962;34;20617;-74
2023/04/16 05:07:02;;;;;;;31.77;14.75;;;;;;;;;;4206672;34;20035;-72
2023/04/16 05:09:28;;;;;;;22.10;14.57;;;;;;;;;;4206209;34;20118;-73
2023/04/16 05:11:56;;;;;;;23.62;15.43;;;;;;;;;;4207532;34;20102;-75
2023/04/16 05:14:22;;;;;;;23.38;14.80;;;;;;;;;;4191983;34;20059;-72
2023/04/16 05:16:48;;;;;;;29.95;15.43;;;;;;;;;;4198011;34;20217;-71
2023/04/16 05:19:15;;;;;;;22.92;14.45;;;;;;;;;;4221782;33;20573;-72
2023/04/16 05:21:41;;;;;;;21.83;13.00;;;;;;;;;;4222809;33;20096;-71
2023/04/16 05:24:08;;;;;;;25.67;14.73;;;;;;;;;;4229943;33;20090;-71
2023/04/16 05:26:33;;;;;;;23.20;13.38;;;;;;;;;;4233409;33;20087;-74
2023/04/16 05:29:00;;;;;;;21.95;13.75;;;;;;;;;;4235539;33;20434;-72
2023/04/16 05:31:26;;;;;;;21.90;14.20;;;;;;;;;;4235489;33;20179;-71
2023/04/16 05:33:52;;;;;;;28.83;15.45;;;;;;;;;;4235315;33;20818;-71
2023/04/16 05:36:18;;;;;;;27.08;15.07;;;;;;;;;;4235651;33;20117;-74
2023/04/16 05:38:45;;;;;;;27.60;14.85;;;;;;;;;;4232258;33;20362;-75
2023/04/16 05:41:10;;;;;;;24.17;15.50;;;;;;;;;;4236043;33;20046;-71
2023/04/16 05:43:37;;;;;;;23.65;14.15;;;;;;;;;;4248929;33;20034;-72
2023/04/16 05:46:06;;;;;;;21.98;14.00;;;;;;;;;;4253211;33;20067;-71
2023/04/16 05:48:33;;;;;;;21.40;13.23;;;;;;;;;;4251816;33;20060;-72
2023/04/16 05:51:01;;;;;;;23.40;13.82;;;;;;;;;;4247578;33;20344;-71
2023/04/16 05:53:28;;;;;;;22.17;12.85;;;;;;;;;;4247562;33;20083;-72
2023/04/16 05:55:54;;;;;;;20.30;12.73;;;;;;;;;;4233520;33;20053;-72
2023/04/16 05:58:22;;;;;;;26.15;15.82;;;;;;;;;;4233176;33;20498;-72
2023/04/16 06:00:48;;;;;;;22.60;14.60;;;;;;;;;;4232225;33;20101;-73
2023/04/16 06:03:15;;;;;;;24.00;13.25;;;;;;;;;;4228931;33;20082;-73
2023/04/16 06:05:41;;;;;;;23.02;13.30;;;;;;;;;;4232589;33;20890;-72
2023/04/16 06:08:07;;;;;;;23.33;13.75;;;;;;;;;;4229180;33;20113;-73
2023/04/16 06:10:33;;;;;;;21.00;13.15;;;;;;;;;;4228861;33;20064;-70
2023/04/16 06:12:59;;;;;;;29.83;15.13;;;;;;;;;;4230833;33;20423;-76
2023/04/16 06:15:25;;;;;;;23.45;13.20;;;;;;;;;;4230031;33;20084;-71
2023/04/16 06:17:53;;;;;;;22.52;14.13;;;;;;;;;;4228096;33;20062;-72
2023/04/16 06:20:19;;;;;;;21.55;13.38;;;;;;;;;;4228208;33;20035;-71
2023/04/16 06:22:45;;;;;;;20.40;14.23;;;;;;;;;;4227211;33;20046;-70
2023/04/16 06:25:11;;;;;;;20.62;13.30;;;;;;;;;;4232653;33;20034;-73
2023/04/16 06:27:38;;;;;;;21.62;14.60;;;;;;;;;;4238015;33;20076;-72
2023/04/16 06:30:05;;;;;;;21.27;13.98;;;;;;;;;;4226443;33;20362;-72
2023/04/16 06:32:32;;;;;;;20.37;13.40;;;;;;;;;;4220922;34;20058;-74
2023/04/16 06:34:58;;;;;;;21.40;12.98;;;;;;;;;;4227137;33;20076;-80
2023/04/16 06:37:24;;;;;;;21.73;13.43;;;;;;;;;;4224150;33;20436;-73
2023/04/16 06:39:50;;;;;;;23.92;13.90;;;;;;;;;;4234711;33;20453;-71
2023/04/16 06:42:16;;;;;;;19.67;13.50;;;;;;;;;;4236575;33;20068;-70
2023/04/16 06:44:42;;;;;;;20.37;12.68;;;;;;;;;;4235710;33;20419;-70
2023/04/16 06:47:09;;;;;;;17.05;11.77;;;;;;;;;;4236075;33;20078;-77
2023/04/16 06:49:35;;;;;;;18.35;12.77;;;;;;;;;;4257381;33;20037;-70
2023/04/16 06:52:01;;;;;;;23.05;14.65;;;;;;;;;;4267414;33;20469;-70
2023/04/16 06:54:27;;;;;;;22.48;13.98;;;;;;;;;;4272324;33;20093;-73
2023/04/16 06:56:54;;;;;;;23.48;14.38;;;;;;;;;;4266301;33;20057;-71
2023/04/16 06:59:20;;;;;;;22.02;13.43;;;;;;;;;;4267165;33;20367;-76
2023/04/16 07:01:46;;;;;;;19.62;12.37;;;;;;;;;;4278499;33;20071;-71
2023/04/16 07:04:12;;;;;;;19.67;11.88;;;;;;;;;;4283120;33;20061;-70
2023/04/16 07:06:38;;;;;;;20.00;11.98;;;;;;;;;;4270841;33;20097;-72
2023/04/16 07:09:04;;;;;;;19.75;12.68;;;;;;;;;;4272472;33;20054;-71
2023/04/16 07:11:31;;;;;;;20.77;12.98;;;;;;;;;;4264238;33;20127;-78
2023/04/16 07:13:57;;;;;;;18.65;12.80;;;;;;;;;;4271509;33;20026;-71
2023/04/16 07:16:24;;;;;;;16.48;12.00;;;;;;;;;;4273315;33;20057;-73
2023/04/16 07:18:50;;;;;;;22.17;12.55;;;;;;;;;;4270432;33;20072;-71
2023/04/16 07:21:16;;;;;;;18.23;12.05;;;;;;;;;;4266413;33;20455;-73
2023/04/16 07:23:43;;;;;;;15.75;10.90;;;;;;;;;;4265232;33;20037;-77
2023/04/16 07:26:10;;;;;;;17.50;11.90;;;;;;;;;;4266039;33;20095;-70
2023/04/16 07:28:36;;;;;;;17.98;12.25;;;;;;;;;;4266500;33;20174;-72
2023/04/16 07:31:03;;;;;;;17.23;11.20;;;;;;;;;;4271618;33;20049;-71
2023/04/16 07:33:28;;;;;;;17.92;12.15;;;;;;;;;;4243324;33;20089;-70
2023/04/16 07:35:55;;;;;;;19.08;11.98;;;;;;;;;;4241449;33;20054;-73
2023/04/16 07:38:21;;;;;;;21.50;13.57;;;;;;;;;;4241937;33;20129;-72
2023/04/16 07:40:47;;;;;;;17.77;12.48;;;;;;;;;;4243421;33;20440;-71
2023/04/16 07:43:15;;;;;;;17.90;12.48;;;;;;;;;;4234616;33;20171;-71
2023/04/16 07:45:41;;;;;;;19.77;12.45;;;;;;;;;;4220328;33;20048;-73
2023/04/16 07:48:07;;;;;;;16.30;12.37;;;;;;;;;;4221300;34;20023;-72
2023/04/16 07:50:33;;;;;;;19.83;12.25;;;;;;;;;;4221359;34;20398;-71
2023/04/16 07:53:00;;;;;;;16.83;11.77;;;;;;;;;;4223395;34;20063;-71
2023/04/16 07:55:26;;;;;;;16.23;11.32;;;;;;;;;;4223843;33;20050;-72
2023/04/16 07:57:52;;;;;;;16.30;11.23;;;;;;;;;;4222122;34;20567;-72
2023/04/16 08:00:19;;;;;;;17.37;11.50;;;;;;;;;;4223503;33;20099;-75
2023/04/16 08:02:45;;;;;;;17.77;11.55;;;;;;;;;;4223596;33;20395;-72
2023/04/16 08:05:11;;;;;;;17.27;12.37;;;;;;;;;;4245832;33;20210;-73
2023/04/16 08:07:37;;;;;;;16.62;10.27;;;;;;;;;;4237623;33;20061;-72
2023/04/16 08:10:04;;;;;;;17.73;10.95;;;;;;;;;;4237486;33;20038;-71
2023/04/16 08:12:30;;;;;;;20.35;11.00;;;;;;;;;;4236991;33;20042;-78
2023/04/16 08:14:56;;;;;;;14.75;10.68;;;;;;;;;;4249797;33;20167;-70
2023/04/16 08:17:23;;;;;;;13.73;10.15;;;;;;;;;;4250412;33;20076;-74
2023/04/16 08:19:49;;;;;;;13.68;9.65;;;;;;;;;;4251461;33;20119;-71
2023/04/16 08:22:15;;;;;;;15.38;9.70;;;;;;;;;;4249677;33;20068;-70
2023/04/16 08:24:42;;;;;;;13.98;9.35;;;;;;;;;;4248574;33;20063;-77
2023/04/16 08:27:09;;;;;;;19.55;10.02;;;;;;;;;;4250917;33;20089;-71
2023/04/16 08:29:35;;;;;;;15.75;8.93;;;;;;;;;;4251080;33;20037;-71
2023/04/16 08:32:02;;;;;;;27.35;11.45;;;;;;;;;;4245620;33;20100;-71
2023/04/16 08:34:28;;;;;;;16.45;11.50;;;;;;;;;;4245661;33;20047;-71
2023/04/16 08:36:54;;;;;;;16.20;9.60;;;;;;;;;;4240077;33;20046;-74
2023/04/16 08:39:21;;;;;;;11.43;9.20;;;;;;;;;;4243435;33;20071;-71
2023/04/16 08:41:46;;;;;;;12.43;9.00;;;;;;;;;;4240868;33;20038;-71
2023/04/16 08:44:16;;;;;;;12.63;9.40;;;;;;;;;;4225667;33;20528;-73
2023/04/16 08:46:53;;;;;;;14.15;9.85;;;;;;;;;;4215922;34;20055;-74
2023/04/16 08:49:19;;;;;;;13.52;8.85;;;;;;;;;;4213072;33;20362;-72
2023/04/16 08:51:50;;;;;;;16.20;9.63;;;;;;;;;;4214449;34;20076;-73
2023/04/16 08:54:20;;;;;;;15.77;10.23;;;;;;;;;;4218980;33;20055;-72
2023/04/16 08:56:46;;;;;;;12.55;9.57;;;;;;;;;;4212291;34;20081;-77
2023/04/16 08:59:13;;;;;;;18.17;10.10;;;;;;;;;;4220386;33;20080;-76
2023/04/16 09:01:40;;;;;;;16.87;9.60;;;;;;;;;;4224424;33;20130;-71
2023/04/16 09:04:07;;;;;;;10.63;8.00;;;;;;;;;;4239982;33;20129;-72
2023/04/16 09:06:35;;;;;;;12.35;8.27;;;;;;;;;;4240837;33;20069;-74
2023/04/16 09:09:03;;;;;;;12.52;8.05;;;;;;;;;;4221564;33;20105;-72
2023/04/16 09:11:30;;;;;;;11.50;8.35;;;;;;;;;;4218663;33;20215;-71
2023/04/16 09:13:56;;;;;;;12.10;8.70;;;;;;;;;;4220516;33;20051;-73
2023/04/16 09:16:23;;;;;;;12.65;9.63;;;;;;;;;;4220959;34;20084;-72
2023/04/16 09:18:50;;;;;;;11.98;8.32;;;;;;;;;;4193115;34;20066;-79
2023/04/16 09:21:16;;;;;;;10.85;8.60;;;;;;;;;;4192723;34;20552;-73
2023/04/16 09:23:43;;;;;;;9.52;6.68;;;;;;;;;;4207615;34;20051;-72
2023/04/16 09:26:10;;;;;;;13.95;8.20;;;;;;;;;;4231927;33;20060;-71
2023/04/16 09:28:42;;;;;;;12.13;7.97;;;;;;;;;;4233199;33;20464;-71
2023/04/16 09:31:13;;;;;;;9.35;7.10;;;;;;;;;;4209739;33;20104;-70
2023/04/16 09:33:39;;;;;;;11.32;7.87;;;;;;;;;;4214084;34;20051;-71
2023/04/16 09:36:08;;;;;;;10.00;6.95;;;;;;;;;;4219759;34;20073;-71
2023/04/16 09:38:51;;;;;;;9.25;7.22;;;;;;;;;;4218885;34;20096;-72
2023/04/16 09:41:17;;;;;;;;;;;;;;;;;;4221421;34;20333;-71
2023/04/16 09:43:56;;;;;;;12.63;7.20;;;;;;;;;;4223149;33;20098;-74
2023/04/16 09:46:32;;;;;;;11.12;6.90;;;;;;;;;;4221941;33;20125;-78
2023/04/16 09:49:09;;;;;;;11.10;7.20;;;;;;;;;;4222950;33;20131;-73
2023/04/16 09:51:40;;;;;;;10.95;7.10;;;;;;;;;;4236753;33;20519;-72
2023/04/16 09:54:06;;;;;;;9.05;7.25;;;;;;;;;;4232474;33;20064;-71
2023/04/16 09:56:32;;;;;;;12.45;8.73;;;;;;;;;;4228411;33;20115;-72
2023/04/16 09:58:59;;;;;;;9.43;7.47;;;;;;;;;;4261760;33;20084;-71
2023/04/16 10:01:25;;;;;;;12.88;8.07;;;;;;;;;;4263571;33;20125;-75
2023/04/16 10:03:52;;;;;;;28.08;9.55;;;;;;;;;;4263007;33;20135;-71
2023/04/16 10:06:19;;;;;;;12.23;8.27;;;;;;;;;;4262440;33;20084;-72
2023/04/16 10:08:46;;;;;;;16.08;8.38;;;;;;;;;;4247364;33;20214;-72
2023/04/16 10:11:12;;;;;;;9.05;7.37;;;;;;;;;;4249170;33;20482;-71
2023/04/16 10:13:39;;;;;;;8.30;6.75;;;;;;;;;;4248073;33;20230;-71
2023/04/16 10:16:05;;;;;;;10.50;7.00;;;;;;;;;;4247968;33;20483;-72
2023/04/16 10:18:33;;;;;;;11.38;6.72;;;;;;;;;;4246499;33;20109;-71
2023/04/16 10:20:59;;;;;;;11.05;7.80;;;;;;;;;;4246259;33;20347;-72
2023/04/16 10:23:25;;;;;;;11.75;7.90;;;;;;;;;;4234714;33;20054;-72
2023/04/16 10:25:53;;;;;;;11.55;7.47;;;;;;;;;;4237085;33;20047;-71
2023/04/16 10:28:19;;;;;;;11.02;7.80;;;;;;;;;;4235261;33;20442;-71
2023/04/16 10:30:51;;;;;;;11.15;7.72;;;;;;;;;;4233040;33;20128;-73
2023/04/16 10:33:19;;;;;;;11.15;7.97;;;;;;;;;;4234437;33;20062;-72
2023/04/16 10:35:45;;;;;;;13.35;7.93;;;;;;;;;;4231327;33;20166;-74
2023/04/16 10:38:22;;;;;;;10.55;7.55;;;;;;;;;;4236617;33;20115;-73
2023/04/16 10:40:49;;;;;;;12.37;9.05;;;;;;;;;;4234634;33;20449;-71
2023/04/16 10:43:16;;;;;;;10.77;8.02;;;;;;;;;;4236826;33;20050;-71
2023/04/16 10:45:49;;;;;;;12.35;7.70;;;;;;;;;;4237125;33;20396;-73
2023/04/16 10:48:19;;;;;;;11.23;8.02;;;;;;;;;;4235734;33;20062;-74
2023/04/16 10:50:59;;;;;;;11.15;8.20;;;;;;;;;;4233336;33;20027;-71
2023/04/16 10:53:26;;;;;;;13.35;8.00;;;;;;;;;;4239035;33;20046;-71
2023/04/16 10:56:18;;;;;;;12.18;7.28;;;;;;;;;;4251203;33;20054;-73
2023/04/16 10:58:44;;;;;;;13.62;8.10;;;;;;;;;;4249351;33;20438;-72
2023/04/16 11:01:12;;;;;;;11.75;7.03;;;;;;;;;;4393121;28;20081;-73
2023/04/16 11:04:01;;;;;;;8.60;6.43;;;;;;;;;;4252064;33;20054;-71
2023/04/16 11:06:28;;;;;;;9.52;6.68;;;;;;;;;;4243874;33;20422;-71
2023/04/16 11:08:54;;;;;;;9.05;6.78;;;;;;;;;;4261859;33;20368;-78
2023/04/16 11:11:21;;;;;;;12.65;6.80;;;;;;;;;;4254396;33;20768;-73
2023/04/16 11:13:49;;;;;;;13.68;7.10;;;;;;;;;;4237961;33;20098;-74
2023/04/16 11:16:16;;;;;;;7.82;5.70;;;;;;;;;;4233698;33;20415;-72
2023/04/16 11:18:44;;;;;;;12.90;6.18;;;;;;;;;;4202354;34;20052;-74
2023/04/16 11:21:11;;;;;;;91.40;37.20;;;;;;;;;;4207533;34;20043;-72
2023/04/16 11:23:48;;;;;;;12.23;7.65;;;;;;;;;;4215726;33;20308;-74
2023/04/16 11:26:25;;;;;;;208.55;76.03;;;;;;;;;;4203489;34;20811;-71
2023/04/16 11:28:51;;;;;;;71.10;29.95;;;;;;;;;;4214894;33;20120;-76
2023/04/16 11:31:18;;;;;;;42.45;18.83;;;;;;;;;;4187140;34;20217;-70
2023/04/16 11:33:44;;;;;;;13.05;8.65;;;;;;;;;;4173539;34;20535;-73
2023/04/16 11:36:10;;;;;;;31.50;13.48;;;;;;;;;;4160120;34;20216;-73
2023/04/16 11:38:39;;;;;;;14.07;7.55;;;;;;;;;;4158430;34;20503;-71
2023/04/16 11:41:06;;;;;;;13.20;6.87;;;;;;;;;;4158838;34;20082;-74
2023/04/16 11:43:32;;;;;;;10.25;7.95;;;;;;;;;;4179613;34;20176;-71
2023/04/16 11:46:02;;;;;;;12.75;8.25;;;;;;;;;;4193343;34;20073;-72
2023/04/16 11:48:47;;;;;;;13.38;8.05;;;;;;;;;;4193420;34;20036;-70
2023/04/16 11:51:13;;;;;;;10.48;6.45;;;;;;;;;;4204524;34;20120;-71
2023/04/16 11:53:46;;;;;;;8.95;6.15;;;;;;;;;;4207477;34;20403;-70
2023/04/16 11:56:12;;;;;;;8.80;5.78;;;;;;;;;;4208678;33;20065;-71
2023/04/16 11:58:39;;;;;;;9.77;6.53;;;;;;;;;;4220027;33;20430;-70
2023/04/16 12:01:07;;;;;;;9.88;6.20;;;;;;;;;;4220776;33;20800;-73
2023/04/16 12:03:45;;;;;;;7.43;6.05;;;;;;;;;;4235447;33;20064;-72
2023/04/16 12:06:11;;;;;;;8.77;5.93;;;;;;;;;;4243222;33;20195;-75
2023/04/16 12:08:37;;;;;;;8.13;6.35;;;;;;;;;;4242649;33;20183;-71
2023/04/16 12:11:04;;;;;;;6.95;5.68;;;;;;;;;;4248500;33;20062;-70
2023/04/16 12:13:38;;;;;;;9.05;5.75;;;;;;;;;;4243518;33;20058;-72
2023/04/16 12:16:15;;;;;;;8.00;6.03;;;;;;;;;;4228386;33;20137;-70
2023/04/16 12:18:57;;;;;;;9.35;6.53;;;;;;;;;;4212505;34;20059;-73
2023/04/16 12:21:23;;;;;;;;;;;;;;;;;;4193283;34;20498;-72
2023/04/16 12:23:52;;;;;;;7.22;5.68;;;;;;;;;;4207708;34;19952;-72
2023/04/16 12:26:18;;;;;;;9.50;6.45;;;;;;;;;;4205304;34;20093;-74
2023/04/16 12:28:45;;;;;;;12.00;5.90;;;;;;;;;;4206751;34;20039;-72
2023/04/16 12:31:11;;;;;;;7.03;5.57;;;;;;;;;;4207699;34;20492;-71
2023/04/16 12:33:37;;;;;;;7.75;6.60;;;;;;;;;;4208454;34;20487;-71
2023/04/16 12:36:18;;;;;;;11.27;7.70;;;;;;;;;;4209724;34;20043;-73
2023/04/16 12:38:45;;;;;;;5.97;5.00;;;;;;;;;;4209706;34;20059;-71
2023/04/16 12:41:11;;;;;;;9.85;4.65;;;;;;;;;;4210020;34;20039;-70
2023/04/16 12:43:37;;;;;;;7.47;5.25;;;;;;;;;;4209262;34;20077;-70
2023/04/16 12:46:03;;;;;;;7.20;5.30;;;;;;;;;;4209476;34;20061;-70
2023/04/16 12:48:31;;;;;;;7.20;5.55;;;;;;;;;;4217902;33;20047;-75
2023/04/16 12:50:57;;;;;;;9.23;5.40;;;;;;;;;;4203364;34;20086;-71
2023/04/16 12:53:24;;;;;;;25.35;11.18;;;;;;;;;;4206671;34;20071;-71
2023/04/16 12:55:50;;;;;;;6.55;5.70;;;;;;;;;;4190621;34;20082;-73
2023/04/16 12:58:17;;;;;;;5.43;4.62;;;;;;;;;;4186129;34;20083;-71
2023/04/16 13:00:43;;;;;;;6.50;4.87;;;;;;;;;;4188120;34;20055;-72
2023/04/16 13:03:10;;;;;;;6.55;5.40;;;;;;;;;;4187534;34;20169;-72
2023/04/16 13:05:35;;;;;;;6.72;5.05;;;;;;;;;;4195923;34;20074;-71
2023/04/16 13:08:04;;;;;;;7.60;5.40;;;;;;;;;;4193841;34;20105;-71
2023/04/16 13:10:30;;;;;;;6.40;4.95;;;;;;;;;;4204898;34;20842;-75
2023/04/16 13:12:56;;;;;;;6.60;5.35;;;;;;;;;;4207007;33;20487;-72
2023/04/16 13:15:22;;;;;;;8.35;4.70;;;;;;;;;;4207696;34;20043;-71
2023/04/16 13:17:49;;;;;;;6.97;4.72;;;;;;;;;;4206855;34;21526;-71
2023/04/16 13:20:16;;;;;;;7.15;5.45;;;;;;;;;;4228607;33;20686;-72
2023/04/16 13:22:43;;;;;;;8.10;6.07;;;;;;;;;;4251029;33;20083;-72
2023/04/16 13:25:09;;;;;;;7.18;5.15;;;;;;;;;;4256076;33;20042;-70
2023/04/16 13:27:35;;;;;;;5.47;4.90;;;;;;;;;;4259856;33;20095;-71
2023/04/16 13:30:01;;;;;;;6.80;5.10;;;;;;;;;;4261193;33;20365;-70
2023/04/16 13:32:28;;;;;;;7.90;5.43;;;;;;;;;;4258610;33;20466;-72
2023/04/16 13:34:54;;;;;;;8.50;5.97;;;;;;;;;;4256478;33;20039;-72
2023/04/16 13:37:21;;;;;;;11.52;5.68;;;;;;;;;;4247393;33;20407;-71
2023/04/16 13:39:47;;;;;;;7.55;5.82;;;;;;;;;;4257129;33;20117;-70
2023/04/16 13:42:13;;;;;;;7.35;4.93;;;;;;;;;;4254465;33;20124;-73
2023/04/16 13:44:40;;;;;;;6.10;4.93;;;;;;;;;;4255467;33;20399;-73
2023/04/16 13:47:06;;;;;;;6.68;5.05;;;;;;;;;;4251278;33;20104;-70
2023/04/16 13:49:34;;;;;;;6.57;4.80;;;;;;;;;;4233693;33;20512;-69
2023/04/16 13:52:00;;;;;;;5.80;5.20;;;;;;;;;;4234659;33;20072;-70
2023/04/16 13:54:26;;;;;;;5.03;4.57;;;;;;;;;;4232320;33;20081;-71
2023/04/16 13:56:52;;;;;;;8.43;5.50;;;;;;;;;;4232649;33;20050;-76
2023/04/16 13:59:19;;;;;;;6.00;4.72;;;;;;;;;;4233328;33;20046;-71
2023/04/16 14:01:46;;;;;;;6.28;4.65;;;;;;;;;;4235775;33;20084;-71
2023/04/16 14:04:12;;;;;;;5.37;4.80;;;;;;;;;;4235918;33;20038;-71
2023/04/16 14:06:38;;;;;;;7.78;5.07;;;;;;;;;;4234763;33;20420;-70
2023/04/16 14:09:04;;;;;;;5.80;5.18;;;;;;;;;;4234371;33;20444;-72
2023/04/16 14:11:31;;;;;;;6.20;5.40;;;;;;;;;;4235231;33;20080;-70
2023/04/16 14:13:57;;;;;;;9.10;5.45;;;;;;;;;;4236423;33;20426;-70
2023/04/16 14:16:23;;;;;;;7.57;5.55;;;;;;;;;;4236756;33;20038;-70
2023/04/16 14:18:50;;;;;;;6.85;5.40;;;;;;;;;;4235647;33;20068;-70
2023/04/16 14:21:16;;;;;;;7.18;5.68;;;;;;;;;;4245000;33;20050;-77
2023/04/16 14:23:42;;;;;;;7.28;4.72;;;;;;;;;;4249658;33;20102;-70
2023/04/16 14:26:09;;;;;;;6.25;4.68;;;;;;;;;;4250450;33;20075;-72
2023/04/16 14:28:35;;;;;;;7.00;4.95;;;;;;;;;;4234752;33;20054;-71
2023/04/16 14:31:01;;;;;;;6.45;5.18;;;;;;;;;;4236405;33;20464;-72
2023/04/16 14:33:27;;;;;;;7.50;5.65;;;;;;;;;;4234830;33;20089;-71
2023/04/16 14:35:53;;;;;;;5.82;5.20;;;;;;;;;;4236300;33;20055;-71
2023/04/16 14:38:26;;;;;;;5.80;5.15;;;;;;;;;;4236257;33;20038;-71
2023/04/16 14:40:59;;;;;;;6.95;5.30;;;;;;;;;;4236132;33;20377;-71
2023/04/16 14:43:25;;;;;;;7.87;5.43;;;;;;;;;;4233732;33;20039;-74
2023/04/16 14:45:52;;;;;;;7.72;5.78;;;;;;;;;;4236209;33;20084;-72
2023/04/16 14:48:18;;;;;;;6.18;4.90;;;;;;;;;;4235758;33;20055;-72
2023/04/16 14:50:44;;;;;;;7.30;5.35;;;;;;;;;;4234937;33;20022;-71
2023/04/16 14:53:10;;;;;;;6.93;5.47;;;;;;;;;;4236097;33;20485;-75
2023/04/16 14:55:36;;;;;;;5.35;4.90;;;;;;;;;;4233054;33;20449;-71
2023/04/16 14:58:03;;;;;;;8.48;5.22;;;;;;;;;;4222710;33;20595;-74
2023/04/16 15:00:29;;;;;;;10.07;5.55;;;;;;;;;;4248217;33;20050;-73
2023/04/16 15:02:55;;;;;;;9.20;6.40;;;;;;;;;;4248693;33;20120;-70
2023/04/16 15:05:21;;;;;;;6.87;5.90;;;;;;;;;;4248697;33;20456;-77
2023/04/16 15:07:47;;;;;;;6.40;5.25;;;;;;;;;;4251868;33;20662;-71
2023/04/16 15:10:13;;;;;;;6.20;5.37;;;;;;;;;;4263954;33;20077;-74
2023/04/16 15:12:39;;;;;;;6.93;5.70;;;;;;;;;;4264915;33;20076;-71
2023/04/16 15:15:06;;;;;;;6.70;5.60;;;;;;;;;;4251579;33;20046;-71
2023/04/16 15:17:32;;;;;;;10.82;5.72;;;;;;;;;;4250856;33;20168;-77
2023/04/16 15:19:59;;;;;;;5.70;5.00;;;;;;;;;;4252616;33;20053;-73
2023/04/16 15:22:26;;;;;;;9.40;5.35;;;;;;;;;;4252989;33;20050;-71
2023/04/16 15:24:52;;;;;;;10.00;5.90;;;;;;;;;;4236916;33;20031;-72
2023/04/16 15:27:19;;;;;;;11.35;6.18;;;;;;;;;;4237434;33;20054;-77
2023/04/16 15:29:46;;;;;;;8.85;6.82;;;;;;;;;;4235781;33;20550;-72
2023/04/16 15:32:13;;;;;;;8.77;6.50;;;;;;;;;;4238512;33;20058;-71
2023/04/16 15:34:40;;;;;;;8.27;6.43;;;;;;;;;;4236781;33;20113;-71
2023/04/16 15:37:07;;;;;;;11.00;5.50;;;;;;;;;;4238500;33;20088;-73
2023/04/16 15:39:33;;;;;;;11.77;6.28;;;;;;;;;;4235999;33;20541;-77
2023/04/16 15:42:00;;;;;;;8.13;5.97;;;;;;;;;;4250072;33;20046;-71
2023/04/16 15:44:26;;;;;;;10.50;6.65;;;;;;;;;;4252030;33;20054;-71
2023/04/16 15:46:52;;;;;;;8.50;5.57;;;;;;;;;;4236515;33;20052;-71
2023/04/16 15:49:18;;;;;;;14.73;5.72;;;;;;;;;;4210259;34;20042;-70
2023/04/16 15:51:45;;;;;;;8.05;5.87;;;;;;;;;;4210535;34;20050;-73
2023/04/16 15:54:11;;;;;;;7.10;5.53;;;;;;;;;;4209298;34;20448;-72
2023/04/16 15:56:37;;;;;;;8.13;6.25;;;;;;;;;;4210228;34;20177;-72
2023/04/16 15:59:03;;;;;;;5.75;5.22;;;;;;;;;;4195022;34;20047;-70
2023/04/16 16:01:30;;;;;;;6.78;5.97;;;;;;;;;;4191309;34;20043;-71
2023/04/16 16:04:05;;;;;;;7.40;5.55;;;;;;;;;;4192331;34;20061;-72
2023/04/16 16:06:32;;;;;;;6.40;5.05;;;;;;;;;;4207383;34;20793;-71
2023/04/16 16:08:58;;;;;;;7.97;5.55;;;;;;;;;;4195793;34;20077;-71
2023/04/16 16:11:24;;;;;;;9.13;5.37;;;;;;;;;;4195313;34;20065;-70
2023/04/16 16:13:50;;;;;;;9.82;6.57;;;;;;;;;;4190997;34;20039;-77
2023/04/16 16:16:17;;;;;;;9.27;5.75;;;;;;;;;;4193429;34;20598;-73
2023/04/16 16:18:43;;;;;;;7.65;6.03;;;;;;;;;;4204650;34;20349;-74
2023/04/16 16:21:09;;;;;;;7.87;6.15;;;;;;;;;;4216760;34;20064;-72
2023/04/16 16:23:35;;;;;;;5.72;5.15;;;;;;;;;;4223400;33;20066;-73
2023/04/16 16:26:04;;;;;;;6.03;5.43;;;;;;;;;;4223606;34;20101;-72
2023/04/16 16:28:30;;;;;;;5.68;5.07;;;;;;;;;;4221647;34;20449;-72